Time;durP1;ratioP1;P1;durP2;ratioP2;P2;SDS_P1;SDS_P2;PMS_P1;PMS_P2;Temp;Humidity;BMP_temperature;BMP_pressure;BME280_temperature;BME280_humidity;BME280_pressure;Samples;Min_cycle;Max_cycle;Signal;HPM_P1;HPM_P2
2021/12/02 00:00:46;;;;;;;2.85;0.80;;;3.70;99.90;;;;;;5078956;23;20049;-81
2021/12/02 00:03:12;;;;;;;2.70;0.90;;;3.60;99.90;;;;;;5062455;23;20094;-82
2021/12/02 00:05:38;;;;;;;1.98;0.77;;;3.50;99.90;;;;;;5062732;23;20514;-81
2021/12/02 00:08:04;;;;;;;2.60;0.77;;;3.50;99.90;;;;;;5076684;22;20059;-82
2021/12/02 00:10:31;;;;;;;2.65;0.60;;;3.40;99.90;;;;;;5063075;23;20063;-81
2021/12/02 00:13:01;;;;;;;2.50;0.80;;;3.40;99.90;;;;;;5049362;28;20040;-81
2021/12/02 00:21:07;;;;;;;2.63;0.68;;;3.10;99.90;;;;;;5058206;23;20041;-81
2021/12/02 00:23:34;;;;;;;4.65;1.05;;;3.00;99.90;;;;;;5040909;22;20052;-81
2021/12/02 00:26:01;;;;;;;4.45;0.90;;;3.00;99.90;;;;;;5044147;23;20046;-81
2021/12/02 00:28:29;;;;;;;5.28;0.82;;;2.90;99.90;;;;;;5056082;22;20052;-81
2021/12/02 00:30:58;;;;;;;4.38;1.00;;;2.90;99.90;;;;;;5065784;22;20064;-81
2021/12/02 00:33:26;;;;;;;4.07;1.00;;;2.90;99.90;;;;;;5041690;23;20645;-81
2021/12/02 00:35:55;;;;;;;3.58;0.95;;;2.80;99.90;;;;;;5044672;23;20056;31
2021/12/02 00:38:23;;;;;;;5.05;0.98;;;2.80;99.90;;;;;;5052687;22;20057;-81
2021/12/02 00:40:50;;;;;;;4.47;0.90;;;2.80;99.90;;;;;;5062947;23;20049;-81
2021/12/02 00:43:16;;;;;;;5.05;1.00;;;2.80;99.90;;;;;;5063511;23;20044;-81
2021/12/02 00:45:44;;;;;;;6.88;1.20;;;2.80;99.90;;;;;;5063343;23;20067;-81
2021/12/02 00:48:12;;;;;;;4.45;0.73;;;2.80;99.90;;;;;;5070149;23;20040;-81
2021/12/02 00:50:42;;;;;;;4.15;1.25;;;2.80;99.90;;;;;;5045117;23;20045;-81
2021/12/02 00:53:09;;;;;;;5.35;0.98;;;2.80;99.90;;;;;;5062369;22;20049;-82
2021/12/02 00:55:38;;;;;;;5.15;0.70;;;2.80;99.90;;;;;;5063078;23;20139;-81
2021/12/02 00:58:04;;;;;;;6.88;0.82;;;2.90;99.90;;;;;;5048131;22;20068;-81
2021/12/02 01:00:32;;;;;;;5.00;0.82;;;2.90;99.90;;;;;;5062657;22;20053;-81
2021/12/02 01:03:02;;;;;;;4.85;0.80;;;2.90;99.90;;;;;;5065045;22;20049;-82
2021/12/02 01:05:29;;;;;;;3.20;0.80;;;2.90;99.90;;;;;;5024431;23;20053;-81
2021/12/02 01:07:58;;;;;;;4.40;0.80;;;3.00;99.90;;;;;;5039057;23;20053;-81
2021/12/02 01:10:24;;;;;;;5.65;1.10;;;3.00;99.90;;;;;;5046322;23;20051;-82
2021/12/02 01:12:50;;;;;;;4.40;0.82;;;3.10;99.90;;;;;;5006379;28;20128;-82
2021/12/02 01:15:17;;;;;;;5.60;1.20;;;3.20;99.90;;;;;;5022028;28;20053;-81
2021/12/02 01:17:43;;;;;;;3.80;0.90;;;3.10;99.90;;;;;;5041955;23;20052;-81
2021/12/02 01:20:09;;;;;;;5.72;1.00;;;3.10;99.90;;;;;;5040026;23;20114;-81
2021/12/02 01:22:39;;;;;;;3.65;0.60;;;3.00;99.90;;;;;;5038145;23;20061;-81
2021/12/02 01:25:07;;;;;;;0.90;0.40;;;2.90;99.90;;;;;;5024565;23;20115;-81
2021/12/02 01:27:37;;;;;;;4.50;0.63;;;2.80;99.90;;;;;;5005075;28;20140;-81
2021/12/02 01:30:06;;;;;;;4.32;0.60;;;2.80;99.90;;;;;;5049730;23;20435;-81
2021/12/02 01:32:38;;;;;;;1.88;0.60;;;2.70;99.90;;;;;;5029656;23;20064;-81
2021/12/02 01:35:05;;;;;;;3.17;0.60;;;2.60;99.90;;;;;;5036396;22;20136;-81
2021/12/02 01:37:32;;;;;;;3.75;0.60;;;2.60;99.90;;;;;;5029972;23;20051;-81
2021/12/02 01:39:58;;;;;;;3.63;0.60;;;2.50;99.90;;;;;;5011358;23;20500;-81
2021/12/02 01:42:27;;;;;;;4.07;0.77;;;2.50;99.90;;;;;;5001849;28;20052;-81
2021/12/02 01:47:23;;;;;;;2.40;0.50;;;2.50;99.90;;;;;;5101446;22;20100;-81
2021/12/02 01:49:53;;;;;;;4.22;0.57;;;2.60;99.90;;;;;;5036856;23;20054;-81
2021/12/02 01:52:25;;;;;;;3.55;0.70;;;2.60;99.90;;;;;;5031916;23;20540;-81
2021/12/02 01:54:56;;;;;;;4.63;0.85;;;2.60;99.90;;;;;;5028235;28;20052;-81
2021/12/02 01:57:33;;;;;;;2.95;0.73;;;2.50;99.90;;;;;;5047581;22;20041;-81
2021/12/02 02:00:44;;;;;;;2.45;0.68;;;2.50;99.90;;;;;;5040099;23;20045;-81
2021/12/02 02:03:13;;;;;;;6.75;0.93;;;2.40;99.90;;;;;;5015722;23;20045;-81
2021/12/02 02:05:39;;;;;;;4.85;0.70;;;2.40;99.90;;;;;;5056209;23;20075;-81
2021/12/02 02:08:20;;;;;;;3.45;0.63;;;2.40;99.90;;;;;;5055218;23;20077;-81
2021/12/02 02:10:46;;;;;;;4.78;0.88;;;2.30;99.90;;;;;;5026166;23;20052;-81
2021/12/02 02:13:13;;;;;;;3.10;0.80;;;2.30;99.90;;;;;;5050893;22;20036;-81
2021/12/02 02:15:44;;;;;;;3.22;0.80;;;2.20;99.90;;;;;;5060209;23;20061;-81
2021/12/02 02:18:23;;;;;;;5.22;0.80;;;2.20;99.90;;;;;;5049787;22;20241;-81
2021/12/02 02:21:02;;;;;;;4.55;0.82;;;2.20;99.90;;;;;;5054447;23;20069;-81
2021/12/02 02:23:31;;;;;;;4.93;1.30;;;2.10;99.90;;;;;;5057344;23;20522;-81
2021/12/02 02:25:59;;;;;;;3.92;1.50;;;2.00;99.90;;;;;;5069371;22;20570;-81
2021/12/02 02:28:28;;;;;;;3.95;1.20;;;2.00;99.90;;;;;;5035635;23;20060;-81
2021/12/02 02:30:55;;;;;;;6.47;1.40;;;1.90;99.90;;;;;;5042595;23;20553;-81
2021/12/02 02:33:22;;;;;;;4.40;1.40;;;1.90;99.90;;;;;;5022343;23;21067;-81
2021/12/02 02:35:49;;;;;;;5.97;1.30;;;1.90;99.90;;;;;;5035321;23;20053;-82
2021/12/02 02:38:16;;;;;;;5.70;1.67;;;1.80;99.90;;;;;;5042745;22;20523;-81
2021/12/02 02:40:45;;;;;;;7.43;1.58;;;1.80;99.90;;;;;;5039578;23;20081;-81
2021/12/02 02:43:19;;;;;;;7.45;2.00;;;1.80;99.90;;;;;;5041657;22;20072;-81
2021/12/02 02:45:45;;;;;;;5.50;1.50;;;1.80;99.90;;;;;;5045084;28;20045;-81
2021/12/02 02:48:11;;;;;;;5.40;1.60;;;1.90;99.90;;;;;;5040359;23;20049;-81
2021/12/02 02:50:37;;;;;;;5.63;1.58;;;1.90;99.90;;;;;;5032162;23;20045;-81
2021/12/02 02:53:09;;;;;;;4.72;1.70;;;1.90;99.90;;;;;;5048969;23;20129;-81
2021/12/02 02:55:36;;;;;;;6.07;1.65;;;2.00;99.90;;;;;;5030010;23;20060;-81
2021/12/02 02:58:11;;;;;;;7.22;2.00;;;2.00;99.90;;;;;;5027664;23;20067;-81
2021/12/02 03:00:46;;;;;;;;;;;2.00;99.90;;;;;;5031882;23;20143;-81
2021/12/02 03:08:37;;;;;;;6.13;1.75;;;1.90;99.90;;;;;;5061182;23;20049;-81
2021/12/02 03:11:05;;;;;;;3.28;1.17;;;1.90;99.90;;;;;;5046803;23;20060;-82
2021/12/02 03:13:47;;;;;;;5.65;1.50;;;1.80;99.90;;;;;;5057653;23;20053;-81
2021/12/02 03:18:58;;;;;;;5.22;1.25;;;1.80;99.90;;;;;;5056052;23;20144;-81
2021/12/02 03:21:24;;;;;;;5.88;0.95;;;1.80;99.90;;;;;;5033803;23;21126;-82
2021/12/02 03:23:52;;;;;;;3.67;0.85;;;1.90;99.90;;;;;;5053725;23;20050;-82
2021/12/02 03:26:18;;;;;;;4.63;0.73;;;2.00;99.90;;;;;;5034391;23;20057;-81
2021/12/02 03:28:47;;;;;;;3.28;0.88;;;2.10;99.90;;;;;;5082984;28;20139;-81
2021/12/02 03:31:12;;;;;;;2.33;0.63;;;2.10;99.90;;;;;;5031037;23;20051;-81
2021/12/02 03:33:38;;;;;;;2.10;0.70;;;2.20;99.90;;;;;;5036128;23;20117;-81
2021/12/02 03:36:04;;;;;;;3.30;0.75;;;2.20;99.90;;;;;;5046880;22;20056;-81
2021/12/02 03:38:29;;;;;;;3.10;0.70;;;2.80;99.90;;;;;;5043027;23;20049;-81
2021/12/02 03:40:55;;;;;;;2.15;0.65;;;2.20;99.90;;;;;;5057263;23;20059;-81
2021/12/02 03:43:22;;;;;;;3.42;0.45;;;2.20;99.90;;;;;;5060608;23;20189;-81
2021/12/02 03:45:47;;;;;;;2.42;0.60;;;2.20;99.90;;;;;;5064757;28;20051;-81
2021/12/02 03:48:13;;;;;;;5.65;0.60;;;2.20;99.90;;;;;;5060041;22;20031;-81
2021/12/02 03:50:39;;;;;;;2.58;0.52;;;2.10;99.90;;;;;;5060603;23;20508;-81
2021/12/02 03:53:04;;;;;;;1.92;0.57;;;2.10;99.90;;;;;;5032890;22;20109;-81
2021/12/02 03:55:30;;;;;;;2.97;0.63;;;2.10;99.90;;;;;;5006568;23;20050;-81
2021/12/02 03:57:59;;;;;;;2.80;0.70;;;2.10;99.90;;;;;;5024680;23;20451;-82
2021/12/02 04:00:24;;;;;;;3.97;0.90;;;2.10;99.90;;;;;;5036629;23;20597;-81
2021/12/02 04:02:57;;;;;;;4.03;1.15;;;2.80;99.90;;;;;;5001650;23;20046;-82
2021/12/02 04:05:23;;;;;;;5.35;1.20;;;2.10;99.90;;;;;;5024956;23;20106;-81
2021/12/02 04:07:48;;;;;;;3.67;1.00;;;2.10;99.90;;;;;;5029194;23;20493;-82
2021/12/02 04:10:14;;;;;;;4.28;0.90;;;2.10;99.90;;;;;;5033498;22;20061;-81
2021/12/02 04:15:15;;;;;;;4.70;0.80;;;2.20;99.90;;;;;;5038910;23;20042;-81
2021/12/02 04:17:43;;;;;;;3.10;0.90;;;2.10;99.90;;;;;;5033755;23;20484;-81
2021/12/02 04:20:14;;;;;;;3.35;0.60;;;2.30;99.90;;;;;;5046615;23;20461;-81
2021/12/02 04:22:42;;;;;;;4.82;0.73;;;3.10;99.90;;;;;;5035454;23;20050;-81
2021/12/02 04:25:09;;;;;;;5.43;0.70;;;2.20;99.90;;;;;;5030020;23;20080;-81
2021/12/02 04:27:35;;;;;;;2.50;0.60;;;2.20;99.90;;;;;;5042627;22;20052;-81
2021/12/02 04:30:03;;;;;;;3.40;0.75;;;2.20;99.90;;;;;;5037149;23;20091;-81
2021/12/02 04:32:29;;;;;;;3.55;0.80;;;2.80;99.90;;;;;;5030046;23;20053;-80
2021/12/02 04:34:58;;;;;;;2.75;0.80;;;2.30;99.90;;;;;;5026548;23;20041;-81
2021/12/02 04:37:24;;;;;;;4.20;1.00;;;2.30;99.90;;;;;;4985566;28;20038;-81
2021/12/02 04:39:53;;;;;;;6.07;0.90;;;2.40;99.90;;;;;;5040905;23;20056;-81
2021/12/02 04:42:19;;;;;;;1.75;0.70;;;2.40;99.90;;;;;;5047724;22;20268;-81
2021/12/02 04:44:45;;;;;;;2.78;0.75;;;2.40;99.90;;;;;;5054152;22;20057;-81
2021/12/02 04:47:10;;;;;;;1.75;0.57;;;2.30;99.90;;;;;;5032532;22;20041;-81
2021/12/02 04:49:36;;;;;;;3.15;0.60;;;3.00;99.90;;;;;;5042888;23;20060;-81
2021/12/02 04:52:03;;;;;;;1.92;0.60;;;2.20;99.90;;;;;;5033662;22;20068;-82
2021/12/02 04:54:28;;;;;;;1.70;0.60;;;2.20;99.90;;;;;;5019808;23;20057;-81
2021/12/02 04:56:55;;;;;;;2.08;0.57;;;2.00;99.90;;;;;;5041610;23;20050;-81
2021/12/02 04:59:21;;;;;;;3.05;0.60;;;2.00;99.90;;;;;;5019721;23;20502;-81
2021/12/02 05:01:46;;;;;;;4.40;0.60;;;2.50;99.90;;;;;;5052257;23;20083;-81
2021/12/02 05:04:12;;;;;;;2.45;0.57;;;2.10;99.90;;;;;;5050868;22;20392;-81
2021/12/02 05:06:38;;;;;;;4.63;0.77;;;2.00;99.90;;;;;;5039309;23;20056;-81
2021/12/02 05:09:04;;;;;;;2.90;0.60;;;2.10;99.90;;;;;;5046330;23;20044;-81
2021/12/02 05:11:29;;;;;;;2.65;0.70;;;2.10;99.90;;;;;;5046348;28;20445;-81
2021/12/02 05:13:55;;;;;;;3.15;0.70;;;2.50;99.90;;;;;;5034833;23;20045;-81
2021/12/02 05:16:21;;;;;;;3.85;0.90;;;2.10;99.90;;;;;;5031944;23;20056;-81
2021/12/02 05:18:46;;;;;;;2.42;0.90;;;2.10;99.90;;;;;;5030450;22;20526;-81
2021/12/02 05:21:12;;;;;;;2.85;0.88;;;2.00;99.90;;;;;;5038777;23;20055;-81
2021/12/02 05:23:38;;;;;;;3.25;0.95;;;2.50;99.90;;;;;;5042035;23;20041;-81
2021/12/02 05:26:04;;;;;;;2.92;1.10;;;2.20;99.90;;;;;;5035943;22;20048;-81
2021/12/02 05:28:30;;;;;;;2.63;1.00;;;2.00;99.90;;;;;;5024603;28;20151;-81
2021/12/02 05:30:55;;;;;;;4.13;1.02;;;2.00;99.90;;;;;;5053409;23;20050;-81
2021/12/02 05:33:21;;;;;;;2.33;0.73;;;2.00;99.90;;;;;;5042766;23;20045;-81
2021/12/02 05:35:47;;;;;;;1.45;0.57;;;2.00;99.90;;;;;;5029383;23;20077;-81
2021/12/02 05:38:13;;;;;;;1.63;0.57;;;1.80;99.90;;;;;;5022935;22;20109;-81
2021/12/02 05:40:39;;;;;;;1.38;0.40;;;1.70;99.90;;;;;;5036999;23;20060;-81
2021/12/02 05:43:05;;;;;;;3.72;0.50;;;1.70;99.90;;;;;;5054792;22;20044;-81
2021/12/02 05:45:32;;;;;;;2.38;0.50;;;1.70;99.90;;;;;;5031992;23;20050;-81
2021/12/02 05:48:00;;;;;;;3.20;0.90;;;2.60;99.90;;;;;;5000928;23;1151836;-81
2021/12/02 05:50:26;;;;;;;2.63;0.90;;;1.70;99.90;;;;;;5051264;23;20095;-81
2021/12/02 05:52:55;;;;;;;2.75;1.15;;;1.60;99.90;;;;;;5034206;23;20465;-82
2021/12/02 05:55:21;;;;;;;4.75;1.00;;;1.70;99.90;;;;;;5051056;23;20045;-81
2021/12/02 05:57:47;;;;;;;2.90;0.90;;;1.70;99.90;;;;;;5036388;23;20064;-81
2021/12/02 06:00:13;;;;;;;5.38;0.90;;;1.80;99.90;;;;;;5038668;23;20484;-81
2021/12/02 06:02:39;;;;;;;2.67;0.70;;;1.80;99.90;;;;;;5047871;23;20115;-81
2021/12/02 06:05:06;;;;;;;2.35;0.68;;;1.80;99.90;;;;;;5014934;23;20045;-81
2021/12/02 06:07:32;;;;;;;2.78;0.60;;;1.80;99.90;;;;;;5036830;23;20061;-81
2021/12/02 06:10:04;;;;;;;1.48;0.47;;;1.80;99.90;;;;;;5059087;22;20053;-81
2021/12/02 06:12:30;;;;;;;2.38;0.60;;;1.80;99.90;;;;;;5021813;22;20145;-81
2021/12/02 06:14:56;;;;;;;1.20;0.50;;;2.40;99.90;;;;;;5024328;23;20088;-81
2021/12/02 06:17:21;;;;;;;2.10;0.40;;;1.90;99.90;;;;;;5027278;22;20081;-81
2021/12/02 06:19:47;;;;;;;3.17;0.60;;;2.60;99.90;;;;;;5035275;22;20049;-81
2021/12/02 06:22:14;;;;;;;6.25;0.70;;;1.60;99.90;;;;;;5027996;22;20053;-82
2021/12/02 06:25:05;;;;;;;2.35;0.65;;;2.20;99.90;;;;;;5004636;28;20033;-81
2021/12/02 06:27:30;;;;;;;4.03;0.70;;;1.80;99.90;;;;;;5018994;23;20082;-81
2021/12/02 06:29:56;;;;;;;2.45;0.65;;;1.80;99.90;;;;;;5053804;23;20120;-81
2021/12/02 06:32:22;;;;;;;5.55;1.00;;;1.80;99.90;;;;;;5045332;22;20041;-81
2021/12/02 06:34:47;;;;;;;4.25;0.80;;;1.90;99.90;;;;;;5023639;28;20040;-80
2021/12/02 06:37:13;;;;;;;5.35;0.80;;;1.90;99.90;;;;;;5023949;28;20041;-81
2021/12/02 06:39:38;;;;;;;4.13;0.80;;;2.80;99.90;;;;;;5023250;28;20033;-81
2021/12/02 06:42:04;;;;;;;2.45;0.57;;;2.30;99.90;;;;;;5024077;28;20041;-81
2021/12/02 06:44:30;;;;;;;3.35;0.60;;;2.00;99.90;;;;;;5043710;28;20099;-81
2021/12/02 06:46:56;;;;;;;2.65;0.50;;;1.90;99.90;;;;;;5031211;22;20061;-81
2021/12/02 06:49:22;;;;;;;1.80;0.60;;;2.40;99.90;;;;;;5047536;22;20091;-81
2021/12/02 06:51:47;;;;;;;2.40;0.80;;;2.30;99.90;;;;;;5028939;23;20077;-81
2021/12/02 06:54:13;;;;;;;2.67;0.80;;;2.00;99.90;;;;;;5021452;23;20050;-81
2021/12/02 06:56:39;;;;;;;5.03;0.80;;;2.00;99.90;;;;;;5024686;23;20399;-81
2021/12/02 06:59:04;;;;;;;3.47;0.50;;;2.10;99.90;;;;;;5039430;23;20042;-81
2021/12/02 07:01:30;;;;;;;5.95;0.60;;;2.00;99.90;;;;;;5059055;23;20519;-81
2021/12/02 07:04:03;;;;;;;1.45;0.50;;;2.80;99.90;;;;;;5052899;23;20051;-81
2021/12/02 07:06:29;;;;;;;1.92;0.52;;;2.10;99.90;;;;;;5062355;22;20445;-81
2021/12/02 07:08:56;;;;;;;3.50;0.50;;;2.60;99.90;;;;;;5065867;22;20111;-82
2021/12/02 07:11:22;;;;;;;2.30;0.63;;;2.20;99.90;;;;;;5016324;23;20429;-81
2021/12/02 07:13:49;;;;;;;1.13;0.35;;;2.50;99.90;;;;;;5012318;22;20060;-82
2021/12/02 07:16:15;;;;;;;3.40;0.60;;;2.10;99.90;;;;;;5013810;23;20037;-81
2021/12/02 07:18:47;;;;;;;3.40;0.80;;;3.10;99.90;;;;;;5043756;28;20052;-81
2021/12/02 07:21:12;;;;;;;3.47;0.55;;;2.20;99.90;;;;;;5045691;23;20048;-81
2021/12/02 07:23:38;;;;;;;2.15;0.60;;;2.20;99.90;;;;;;5061564;23;20057;-80
2021/12/02 07:26:04;;;;;;;2.25;0.50;;;2.20;99.90;;;;;;5039846;28;20395;-81
2021/12/02 07:28:35;;;;;;;2.17;0.40;;;2.90;99.90;;;;;;5045666;22;20431;-81
2021/12/02 07:31:02;;;;;;;3.85;0.50;;;2.10;99.90;;;;;;5031931;22;20083;-81
2021/12/02 07:33:29;;;;;;;2.63;0.50;;;2.00;99.90;;;;;;5022440;23;20053;-81
2021/12/02 07:35:55;;;;;;;4.32;0.60;;;2.80;99.90;;;;;;5039933;23;20049;-81
2021/12/02 07:38:22;;;;;;;4.57;0.70;;;3.00;99.90;;;;;;5032798;23;20050;-80
2021/12/02 07:40:48;;;;;;;4.28;0.90;;;2.00;99.90;;;;;;5039294;23;20500;-81
2021/12/02 07:43:14;;;;;;;2.10;0.60;;;1.90;99.90;;;;;;5038059;28;20087;-81
2021/12/02 07:45:40;;;;;;;3.00;0.70;;;2.40;99.90;;;;;;5031920;22;20057;-81
2021/12/02 07:48:07;;;;;;;2.92;0.63;;;2.00;99.90;;;;;;5067679;22;20049;-81
2021/12/02 07:50:34;;;;;;;2.33;0.50;;;2.00;99.90;;;;;;5040086;22;20045;-81
2021/12/02 07:53:02;;;;;;;3.20;0.47;;;2.00;99.90;;;;;;5044304;23;20052;-81
2021/12/02 07:55:29;;;;;;;3.05;0.70;;;1.90;99.90;;;;;;5002951;23;20197;-81
2021/12/02 07:57:59;;;;;;;3.97;0.60;;;1.90;99.90;;;;;;5024089;23;20507;-81
2021/12/02 08:00:28;;;;;;;2.42;0.60;;;1.90;99.90;;;;;;4986480;28;20046;-81
2021/12/02 08:02:55;;;;;;;3.60;0.73;;;2.60;99.90;;;;;;5005037;23;20115;-81
2021/12/02 08:05:22;;;;;;;4.53;0.70;;;2.80;99.90;;;;;;5035553;22;20429;-81
2021/12/02 08:07:48;;;;;;;3.58;0.75;;;1.90;99.90;;;;;;5050459;23;20495;-81
2021/12/02 08:10:15;;;;;;;3.55;1.00;;;1.90;99.90;;;;;;5052680;23;20449;-81
2021/12/02 08:12:47;;;;;;;3.53;0.82;;;2.50;99.90;;;;;;5043198;23;20064;-80
2021/12/02 08:15:14;;;;;;;3.78;0.90;;;1.80;99.90;;;;;;5031284;28;20475;-81
2021/12/02 08:17:41;;;;;;;3.03;0.98;;;1.90;99.90;;;;;;5029774;23;20075;-81
2021/12/02 08:20:07;;;;;;;3.13;1.10;;;1.80;99.90;;;;;;4986444;28;20054;-81
2021/12/02 08:22:33;;;;;;;5.05;1.52;;;1.80;99.90;;;;;;5017911;23;21124;-82
2021/12/02 08:24:59;;;;;;;5.82;2.00;;;1.80;99.90;;;;;;5014206;23;20060;-82
2021/12/02 08:27:25;;;;;;;4.57;1.88;;;1.80;99.90;;;;;;5038611;22;20067;-81
2021/12/02 08:29:51;;;;;;;10.52;2.58;;;1.90;99.90;;;;;;5035717;23;20049;-82
2021/12/02 08:32:17;;;;;;;8.75;3.55;;;1.90;99.90;;;;;;5042446;28;20106;-81
2021/12/02 08:34:43;;;;;;;9.05;2.83;;;2.00;99.90;;;;;;5042650;28;20043;-81
2021/12/02 08:37:10;;;;;;;9.52;3.72;;;2.10;99.90;;;;;;5050690;23;20044;-81
2021/12/02 08:39:36;;;;;;;11.32;4.28;;;2.20;99.90;;;;;;5055867;23;20102;-81
2021/12/02 08:42:03;;;;;;;12.70;5.20;;;2.20;99.90;;;;;;5050553;22;20057;-81
2021/12/02 08:44:32;;;;;;;8.50;3.10;;;2.40;99.90;;;;;;5052033;23;20124;-81
2021/12/02 08:46:58;;;;;;;8.75;3.90;;;2.30;99.90;;;;;;5023259;28;20049;-82
2021/12/02 08:49:24;;;;;;;13.85;5.05;;;2.50;99.90;;;;;;5035129;23;20182;-82
2021/12/02 08:51:51;;;;;;;9.20;3.75;;;2.50;99.90;;;;;;5065570;28;20088;-82
2021/12/02 08:54:17;;;;;;;7.45;2.08;;;3.50;99.90;;;;;;5066236;28;20036;-82
2021/12/02 08:56:43;;;;;;;8.27;1.95;;;2.50;99.90;;;;;;5065822;28;20386;-82
2021/12/02 08:59:09;;;;;;;5.63;1.92;;;2.50;99.90;;;;;;5065494;28;20099;-81
2021/12/02 09:01:35;;;;;;;4.25;1.33;;;2.50;99.90;;;;;;5065886;28;20116;-81
2021/12/02 09:04:04;;;;;;;6.40;1.45;;;2.90;99.90;;;;;;5057650;22;20118;-81
2021/12/02 09:06:31;;;;;;;4.78;1.48;;;3.20;99.90;;;;;;5021993;28;20049;-81
2021/12/02 09:08:58;;;;;;;4.28;1.30;;;2.70;99.90;;;;;;5039386;28;20095;-82
2021/12/02 09:11:29;;;;;;;6.22;1.50;;;2.60;99.90;;;;;;5023154;28;20050;-82
2021/12/02 09:14:01;;;;;;;5.53;1.10;;;2.70;99.90;;;;;;5079527;22;20044;-81
2021/12/02 09:16:29;;;;;;;6.25;1.48;;;2.70;99.90;;;;;;5063396;28;20043;-82
2021/12/02 09:18:55;;;;;;;5.53;1.60;;;2.70;99.90;;;;;;5065227;28;20062;-82
2021/12/02 09:21:22;;;;;;;4.72;1.55;;;2.70;99.90;;;;;;5082364;28;20044;-82
2021/12/02 09:23:48;;;;;;;10.07;1.90;;;2.70;99.90;;;;;;5083111;28;20145;-82
2021/12/02 09:26:14;;;;;;;6.88;1.50;;;2.90;99.90;;;;;;5065820;28;20036;-81
2021/12/02 09:28:40;;;;;;;5.75;1.48;;;3.70;99.90;;;;;;5065950;28;20074;-82
2021/12/02 09:31:06;;;;;;;6.45;1.50;;;3.40;99.90;;;;;;5066071;28;20036;-81
2021/12/02 09:33:31;;;;;;;5.55;1.10;;;2.90;99.90;;;;;;5045534;23;20411;-81
2021/12/02 09:35:57;;;;;;;3.75;1.20;;;2.90;99.90;;;;;;5038943;28;20041;-82
2021/12/02 09:38:23;;;;;;;6.05;1.08;;;2.90;99.90;;;;;;5039683;28;20052;-82
2021/12/02 09:40:49;;;;;;;5.00;0.93;;;2.90;99.90;;;;;;5039305;28;20049;-82
2021/12/02 09:43:15;;;;;;;2.85;0.90;;;2.90;99.90;;;;;;5039183;28;20052;-81
2021/12/02 09:45:42;;;;;;;3.63;0.80;;;3.20;99.90;;;;;;5061171;23;20151;-81
2021/12/02 09:48:09;;;;;;;4.70;0.95;;;2.80;99.90;;;;;;5067202;23;20059;-82
2021/12/02 09:50:49;;;;;;;5.40;1.35;;;3.10;99.90;;;;;;5077418;22;20054;-81
2021/12/02 09:53:19;;;;;;;2.78;0.90;;;2.90;99.90;;;;;;5008283;28;20041;-82
2021/12/02 09:55:48;;;;;;;6.18;1.05;;;2.80;99.90;;;;;;5006972;28;20037;-81
2021/12/02 09:58:21;;;;;;;2.20;0.88;;;2.80;99.90;;;;;;5035814;22;20045;-82
2021/12/02 10:00:56;;;;;;;3.67;0.80;;;2.80;99.90;;;;;;5083712;28;20130;-81
2021/12/02 10:06:00;;;;;;;5.05;0.90;;;3.10;99.90;;;;;;5058434;22;20100;-81
2021/12/02 10:08:31;;;;;;;3.92;1.00;;;2.80;99.90;;;;;;5027241;28;20044;-82
2021/12/02 10:10:59;;;;;;;3.55;0.90;;;3.50;99.90;;;;;;5042761;28;20041;-82
2021/12/02 10:13:28;;;;;;;2.75;0.77;;;2.90;99.90;;;;;;5025677;28;20041;-82
2021/12/02 10:16:09;;;;;;;2.58;0.80;;;3.00;99.90;;;;;;5026793;28;20068;-82
2021/12/02 10:21:42;;;;;;;5.38;1.00;;;3.10;99.90;;;;;;5067450;22;20045;-81
2021/12/02 10:24:20;;;;;;;5.53;0.85;;;3.20;99.90;;;;;;5026509;23;20517;-81
2021/12/02 10:26:52;;;;;;;3.85;1.08;;;3.30;99.90;;;;;;5045778;28;20048;-82
2021/12/02 10:29:30;;;;;;;3.35;0.75;;;3.40;99.90;;;;;;5030484;28;20062;-82
2021/12/02 10:32:10;;;;;;;2.33;0.70;;;3.60;99.90;;;;;;5045825;28;20079;-81
2021/12/02 10:34:58;;;;;;;3.95;1.00;;;3.80;99.90;;;;;;5080195;28;20076;-83
2021/12/02 10:37:30;;;;;;;3.53;0.70;;;4.10;99.90;;;;;;5060102;28;20040;-81
2021/12/02 10:40:05;;;;;;;3.72;0.95;;;3.70;99.90;;;;;;5060989;28;20040;-82
2021/12/02 10:42:33;;;;;;;1.60;0.43;;;3.50;99.90;;;;;;5080831;28;20072;-81
2021/12/02 10:45:04;;;;;;;4.15;0.60;;;3.10;99.90;;;;;;5068416;22;20053;-81
2021/12/02 10:47:30;;;;;;;1.45;0.60;;;3.50;99.90;;;;;;5041959;23;20524;-81
2021/12/02 10:52:30;;;;;;;1.45;0.40;;;2.40;99.90;;;;;;5068644;22;20385;-81
2021/12/02 10:57:26;;;;;;;1.83;0.57;;;2.20;99.90;;;;;;5104978;22;20053;-81
2021/12/02 10:59:58;;;;;;;1.10;0.43;;;2.00;99.90;;;;;;5045415;28;20071;-82
2021/12/02 11:02:30;;;;;;;1.40;0.50;;;1.90;99.90;;;;;;5036989;23;20045;-81
2021/12/02 11:05:03;;;;;;;0.80;0.40;;;1.90;99.90;;;;;;5042747;23;20097;-82
2021/12/02 11:07:32;;;;;;;2.38;0.40;;;2.90;99.90;;;;;;5060923;22;20057;-81
2021/12/02 11:10:05;;;;;;;2.03;0.50;;;2.50;99.90;;;;;;5054413;23;20507;-81
2021/12/02 11:12:36;;;;;;;3.03;0.60;;;1.70;99.90;;;;;;5027381;28;20056;-81
2021/12/02 11:15:13;;;;;;;1.13;0.40;;;1.60;99.90;;;;;;5023860;28;20073;-81
2021/12/02 11:17:50;;;;;;;1.30;0.40;;;1.60;99.90;;;;;;5041619;23;20062;-81
2021/12/02 11:20:28;;;;;;;1.33;0.50;;;1.50;99.90;;;;;;5066493;28;20078;-81
2021/12/02 11:22:57;;;;;;;1.65;0.57;;;1.50;99.90;;;;;;5037169;22;20038;-81
2021/12/02 11:25:23;;;;;;;1.80;0.70;;;1.60;99.90;;;;;;5064636;28;20045;-81
2021/12/02 11:27:50;;;;;;;3.75;0.95;;;1.60;99.90;;;;;;5049822;28;20089;-81
2021/12/02 11:30:28;;;;;;;3.63;0.80;;;1.60;99.90;;;;;;5045115;22;20055;-81
2021/12/02 11:35:24;;;;;;;2.25;0.63;;;1.80;99.90;;;;;;5107744;22;20060;-81
2021/12/02 11:37:54;;;;;;;1.70;0.60;;;1.90;99.90;;;;;;5002958;23;20061;-82
2021/12/02 11:40:26;;;;;;;2.45;0.60;;;1.90;99.90;;;;;;4986971;28;20034;-82
2021/12/02 11:42:52;;;;;;;3.03;0.80;;;2.10;99.90;;;;;;4971061;28;20046;-81
2021/12/02 11:45:21;;;;;;;4.50;0.73;;;2.20;99.90;;;;;;4986601;28;20076;-80
2021/12/02 11:47:48;;;;;;;2.40;0.77;;;3.00;99.90;;;;;;4969336;28;20038;-81
2021/12/02 11:50:16;;;;;;;2.50;0.88;;;2.20;99.90;;;;;;5008081;22;20028;-81
2021/12/02 11:52:44;;;;;;;3.00;0.80;;;2.30;99.90;;;;;;5027964;28;20041;-81
2021/12/02 11:55:19;;;;;;;2.78;1.00;;;2.50;99.90;;;;;;5049239;23;20037;-81
2021/12/02 11:57:46;;;;;;;3.28;0.80;;;2.50;99.90;;;;;;5054459;22;20056;-81
2021/12/02 12:00:15;;;;;;;2.80;0.80;;;2.40;99.90;;;;;;5004777;28;20080;-81
2021/12/02 12:02:59;;;;;;;2.28;0.60;;;2.70;99.90;;;;;;5005279;28;20054;-81
2021/12/02 12:05:32;;;;;;;1.80;0.70;;;3.30;99.90;;;;;;5022358;28;20038;-80
2021/12/02 12:07:59;;;;;;;2.38;0.70;;;2.80;99.90;;;;;;5020845;28;20103;-80
2021/12/02 12:10:26;;;;;;;2.33;0.70;;;2.90;99.90;;;;;;5021963;28;20128;-80
2021/12/02 12:13:10;;;;;;;3.13;0.80;;;2.90;99.90;;;;;;5011406;23;20108;-81
2021/12/02 12:15:40;;;;;;;2.75;0.70;;;3.00;99.90;;;;;;5002400;28;20098;-81
2021/12/02 12:18:08;;;;;;;4.53;0.80;;;3.10;99.90;;;;;;5034377;28;20038;-80
2021/12/02 12:21:00;;;;;;;1.70;0.70;;;3.30;99.90;;;;;;5016571;28;20050;-80
2021/12/02 12:23:41;;;;;;;1.85;0.63;;;3.30;99.90;;;;;;5055920;23;20053;-81
2021/12/02 12:26:27;;;;;;;1.88;0.68;;;4.30;99.90;;;;;;5055331;22;20069;-80
2021/12/02 12:29:13;;;;;;;1.55;0.68;;;3.30;99.90;;;;;;5043721;28;20049;-80
2021/12/02 12:34:30;;;;;;;1.42;0.50;;;3.40;99.90;;;;;;5081606;23;20049;-80
2021/12/02 12:37:46;;;;;;;3.55;0.70;;;4.20;99.90;;;;;;5045648;28;20048;-80
2021/12/02 12:40:25;;;;;;;5.00;1.10;;;3.50;99.90;;;;;;5061750;28;20062;-80
2021/12/02 12:43:11;;;;;;;8.65;1.70;;;3.60;99.90;;;;;;5058479;22;20057;-81
2021/12/02 12:45:41;;;;;;;;;;;3.60;99.90;;;;;;5038788;28;20056;-80
2021/12/02 12:48:28;;;;;;;5.63;1.48;;;3.70;99.90;;;;;;5064037;23;19956;-81
2021/12/02 12:51:07;;;;;;;5.53;1.15;;;3.70;99.90;;;;;;5054855;22;20498;-80
2021/12/02 12:53:36;;;;;;;3.42;0.75;;;3.70;99.90;;;;;;5034879;23;20403;-81
2021/12/02 12:56:08;;;;;;;2.25;0.70;;;3.70;99.90;;;;;;5030990;22;20394;-81
2021/12/02 12:58:37;;;;;;;4.30;0.70;;;3.70;99.90;;;;;;5001912;23;20048;-81
2021/12/02 13:01:19;;;;;;;5.18;0.90;;;3.80;99.90;;;;;;5035594;23;20049;-81
2021/12/02 13:04:06;;;;;;;5.47;1.00;;;3.80;99.90;;;;;;5019488;23;20049;-81
2021/12/02 13:06:36;;;;;;;2.60;0.70;;;4.10;99.90;;;;;;4995556;23;20076;-81
2021/12/02 13:09:04;;;;;;;2.38;0.70;;;4.50;99.90;;;;;;5012325;23;20049;-81
2021/12/02 13:11:33;;;;;;;2.75;0.70;;;5.30;99.90;;;;;;5034690;23;20049;-81
2021/12/02 13:14:02;;;;;;;2.95;0.80;;;6.70;99.90;;;;;;5046778;22;20102;-81
2021/12/02 13:16:34;;;;;;;3.83;0.80;;;7.10;99.90;;;;;;5037531;23;20061;-81
2021/12/02 13:21:33;;;;;;;2.63;0.60;;;8.30;99.90;;;;;;5091247;22;20099;-81
2021/12/02 13:24:35;;;;;;;2.13;0.70;;;9.80;99.90;;;;;;5037814;23;20048;-81
2021/12/02 13:27:04;;;;;;;1.60;0.45;;;8.80;99.90;;;;;;5038223;23;20060;-82
2021/12/02 13:29:34;;;;;;;1.88;0.50;;;9.10;99.90;;;;;;5042379;28;20482;-82
2021/12/02 13:34:29;;;;;;;3.13;0.60;;;8.90;99.90;;;;;;5021668;28;20057;-81
2021/12/02 13:37:03;;;;;;;3.22;0.65;;;8.80;99.90;;;;;;5011656;28;20049;-81
2021/12/02 13:39:41;;;;;;;3.13;0.70;;;8.80;99.90;;;;;;5020268;28;20172;-81
2021/12/02 13:42:12;;;;;;;4.43;0.95;;;9.20;99.90;;;;;;5027826;23;20128;-82
2021/12/02 13:44:45;;;;;;;5.80;0.85;;;9.30;99.90;;;;;;5000755;28;20041;-81
2021/12/02 13:47:18;;;;;;;5.05;1.02;;;9.50;99.90;;;;;;5018337;22;20039;-81